KPOB/POB METAR and TAF weather

Enter ICAO airport designator
Station Type Date Time Source
KPOB METAR 2019/02/16 17:15 UTC NOAA

KPOB 161715Z AUTO 04015G24KT 5SM -RA BR OVC005 08/07 A2977 RMK AO2 RAB15 SLP084 $


Station Type Date Time Source
KPOB Decoded METAR 2019/02/16 17:15 UTC NOAA

Pope Air Force Base, NC, United States (KPOB) 35-10N 079-02W 61M
Feb 16, 2019 - 12:15 PM EST / 2019.02.16 1715 UTC
Wind: from the NE (040 degrees) at 17 MPH (15 KT) gusting to 28 MPH (24 KT):0
Visibility: 5 mile(s):0
Sky conditions: overcast
Weather: light rain; mist
Temperature: 46 F (8 C)
Dew Point: 44 F (7 C)
Relative Humidity: 93%
Pressure (altimeter): 29.77 in. Hg (1008 hPa)
ob: KPOB 161715Z AUTO 04015G24KT 5SM -RA BR OVC005 08/07 A2977 RMK AO2 RAB15 SLP084
cycle: 17

Station Type Date Time Source
KPOB TAF 2019/02/16 13:03 UTC NOAA

TAF
AMD KPOB 161353Z 1613/1716 06009KT 8000 -RA OVC005 QNH2971INS
BECMG 1617/1618 02012G18KT 9000 -RA OVC007 QNH2972INS
BECMG 1618/1619 04015G25KT 9000 -RA OVC007 QNH2974INS
BECMG 1622/1623 05012G18KT 9999 NSW BKN012 QNH2981INS
BECMG 1705/1706 06010G15KT 9999 SCT015 OVC025 QNH2988INS
BECMG 1708/1709 08009KT 9999 BKN015 OVC025 QNH2995INS TX14/1613Z TN03/1709Z


Example: see airport list